Time;durP1;ratioP1;P1;durP2;ratioP2;P2;SDS_P1;SDS_P2;PMS_P1;PMS_P2;Temp;Humidity;BMP_temperature;BMP_pressure;BME280_temperature;BME280_humidity;BME280_pressure;Samples;Min_cycle;Max_cycle;Signal;HPM_P1;HPM_P2
2022/07/27 00:01:28;;;;;;;3.87;0.70;;;;;;;16.97;49.67;101541.06;5006604;28;96690;-54
2022/07/27 00:03:53;;;;;;;2.03;0.70;;;;;;;16.95;49.88;101547.13;5005426;28;97340;-53
2022/07/27 00:06:19;;;;;;;0.83;0.50;;;;;;;16.95;49.91;101549.91;5004632;28;98038;-53
2022/07/27 00:08:44;;;;;;;1.00;0.80;;;;;;;16.94;49.93;101553.97;5006588;28;96701;-54
2022/07/27 00:11:10;;;;;;;1.53;0.70;;;;;;;16.91;49.82;101551.44;4985276;28;97053;-54
2022/07/27 00:13:36;;;;;;;2.70;0.60;;;;;;;16.88;50.01;101549.72;5006515;28;96776;-54
2022/07/27 00:16:01;;;;;;;1.93;0.80;;;;;;;16.87;50.01;101554.50;5006868;28;96606;-54
2022/07/27 00:18:26;;;;;;;1.33;0.80;;;;;;;16.86;50.12;101557.81;5005820;28;97126;-54
2022/07/27 00:20:52;;;;;;;1.90;0.90;;;;;;;16.85;50.35;101557.06;5005459;28;96909;-54
2022/07/27 00:23:17;;;;;;;2.00;0.80;;;;;;;16.84;50.37;101555.53;5005571;28;97637;-55
2022/07/27 00:25:42;;;;;;;0.70;0.67;;;;;;;16.84;50.35;101555.53;5004773;28;98714;-54
2022/07/27 00:28:08;;;;;;;3.00;0.60;;;;;;;16.83;50.43;101556.03;5003767;28;97423;-54
2022/07/27 00:30:33;;;;;;;3.60;0.70;;;;;;;16.82;50.48;101557.34;5004656;28;96884;-54
2022/07/27 00:32:59;;;;;;;1.40;0.67;;;;;;;16.82;50.48;101560.09;5002551;28;96633;-54
2022/07/27 00:35:25;;;;;;;1.67;0.60;;;;;;;16.79;50.52;101552.78;5004457;28;97840;-54
2022/07/27 00:37:50;;;;;;;1.43;0.60;;;;;;;16.76;50.54;101553.81;5004259;28;96958;-54
2022/07/27 00:40:16;;;;;;;0.60;0.40;;;;;;;16.70;50.62;101550.31;5000655;28;96806;-53
2022/07/27 00:42:41;;;;;;;1.40;0.53;;;;;;;16.66;50.78;101552.59;5003889;28;97145;-53
2022/07/27 00:45:07;;;;;;;2.90;0.50;;;;;;;16.64;50.90;101549.59;5005850;28;96889;-53
2022/07/27 00:47:32;;;;;;;1.57;0.63;;;;;;;16.64;51.04;101549.59;4999733;28;97036;-54
2022/07/27 00:49:58;;;;;;;0.87;0.53;;;;;;;16.66;50.93;101545.03;5006346;28;96835;-54
2022/07/27 00:52:24;;;;;;;2.30;0.70;;;;;;;16.68;50.96;101552.84;5002738;28;97018;-54
2022/07/27 00:54:50;;;;;;;1.53;0.70;;;;;;;16.66;50.95;101545.03;5003521;28;96978;-54
2022/07/27 00:57:16;;;;;;;0.90;0.73;;;;;;;16.63;51.16;101546.03;5003799;28;97355;-54
2022/07/27 00:59:42;;;;;;;1.37;0.80;;;;;;;16.66;51.18;101549.81;5000213;28;97003;-53
2022/07/27 01:02:08;;;;;;;3.53;0.90;;;;;;;16.66;51.29;101539.47;5004705;28;97115;-53
2022/07/27 01:04:34;;;;;;;1.03;0.70;;;;;;;16.67;51.41;101545.75;5000240;28;97263;-53
2022/07/27 01:07:01;;;;;;;1.47;0.70;;;;;;;16.65;51.51;101542.75;5002033;28;97186;-54
2022/07/27 01:12:14;;;;;;;1.27;0.80;;;;;;;16.64;51.65;101547.56;5003399;28;96835;-53
2022/07/27 01:14:39;;;;;;;3.67;1.10;;;;;;;16.63;51.53;101550.84;5001457;28;97546;-54
2022/07/27 01:17:05;;;;;;;2.40;1.10;;;;;;;16.59;51.49;101553.91;5004500;28;96638;-53
2022/07/27 01:19:33;;;;;;;1.50;0.90;;;;;;;16.59;51.55;101555.91;5003223;28;96657;-54
2022/07/27 01:21:58;;;;;;;1.07;0.50;;;;;;;16.54;51.60;101542.78;5003984;28;96987;-54
2022/07/27 01:24:24;;;;;;;1.60;0.80;;;;;;;16.51;51.71;101546.63;5001385;28;97489;-54
2022/07/27 01:26:49;;;;;;;2.00;0.50;;;;;;;16.48;51.64;101543.56;5004894;28;97235;-53
2022/07/27 01:29:15;;;;;;;1.13;0.50;;;;;;;16.47;51.71;101544.06;5000962;28;97102;-54
2022/07/27 01:31:40;;;;;;;2.60;0.50;;;;;;;16.44;51.78;101545.09;5004959;28;96850;-54
2022/07/27 01:34:06;;;;;;;4.20;1.10;;;;;;;16.43;52.02;101547.13;5002535;28;97404;-54
2022/07/27 01:36:31;;;;;;;1.00;0.50;;;;;;;16.44;51.94;101550.66;5003659;28;97410;-54
2022/07/27 01:38:56;;;;;;;1.33;1.00;;;;;;;16.44;52.03;101556.22;5003519;28;97134;-54
2022/07/27 01:41:22;;;;;;;0.80;0.50;;;;;;;16.44;52.02;101551.41;5003396;28;96813;-54
2022/07/27 01:43:47;;;;;;;2.23;0.77;;;;;;;16.42;52.07;101551.16;5004979;28;97282;-54
2022/07/27 01:46:13;;;;;;;1.27;0.70;;;;;;;16.41;52.05;101552.44;4999905;28;96763;-53
2022/07/27 01:48:38;;;;;;;1.17;0.70;;;;;;;16.37;52.12;101549.16;5004884;28;97278;-53
2022/07/27 01:51:03;;;;;;;0.90;0.50;;;;;;;16.35;52.09;101546.16;5002026;28;96966;-54
2022/07/27 01:53:29;;;;;;;2.10;0.80;;;;;;;16.30;52.04;101549.69;5000974;28;97044;-54
2022/07/27 01:55:54;;;;;;;1.30;0.60;;;;;;;16.29;52.12;101545.38;5002549;28;97250;-54
2022/07/27 01:58:19;;;;;;;1.67;0.70;;;;;;;16.30;52.24;101551.69;5001465;28;97403;-54
2022/07/27 02:00:47;;;;;;;0.87;0.80;;;;;;;16.27;52.29;101547.91;5004190;28;97225;-54
2022/07/27 02:03:12;;;;;;;1.80;0.83;;;;;;;16.28;52.37;101546.66;5002595;28;97006;-54
2022/07/27 02:05:38;;;;;;;1.67;0.87;;;;;;;16.27;52.46;101547.91;5003840;28;99028;-54
2022/07/27 02:08:05;;;;;;;1.73;0.80;;;;;;;16.25;52.45;101547.69;5002397;28;96964;-56
2022/07/27 02:10:31;;;;;;;1.10;0.77;;;;;;;16.22;52.54;101545.94;5004252;28;96737;-54
2022/07/27 02:12:57;;;;;;;2.90;0.80;;;;;;;16.20;52.60;101542.16;5004055;28;97357;-54
2022/07/27 02:15:24;;;;;;;2.60;0.60;;;;;;;16.18;52.46;101537.13;5001150;28;97155;-54
2022/07/27 02:17:50;;;;;;;0.70;0.70;;;;;;;16.15;52.45;101540.91;5003846;28;96978;-54
2022/07/27 02:20:18;;;;;;;1.50;0.47;;;;;;;16.12;52.62;101539.13;4997870;28;97068;-54
2022/07/27 02:22:45;;;;;;;1.47;0.70;;;;;;;16.10;52.57;101538.13;4999537;28;97369;-54
2022/07/27 02:25:12;;;;;;;0.90;0.70;;;;;;;16.11;52.76;101536.88;5000901;28;97180;-56
2022/07/27 02:27:38;;;;;;;0.70;0.60;;;;;;;16.08;52.75;101535.09;5001634;28;97071;-54
2022/07/27 02:30:04;;;;;;;0.80;0.80;;;;;;;16.05;52.70;101534.13;5003439;28;97285;-55
2022/07/27 02:32:30;;;;;;;1.57;0.90;;;;;;;16.02;52.71;101539.94;5003293;28;98063;-53
2022/07/27 02:34:55;;;;;;;3.40;0.80;;;;;;;16.00;52.82;101543.22;5003644;28;97059;-54
2022/07/27 02:37:21;;;;;;;0.77;0.70;;;;;;;15.98;52.89;101542.97;5003742;28;97174;-54
2022/07/27 02:39:47;;;;;;;0.57;0.50;;;;;;;15.98;52.86;101548.53;5001291;28;97062;-54
2022/07/27 02:42:12;;;;;;;0.93;0.70;;;;;;;15.97;53.11;101547.00;5002106;28;97661;-56
2022/07/27 02:44:37;;;;;;;1.13;0.87;;;;;;;15.96;52.99;101542.72;5006685;28;97067;-55
2022/07/27 02:47:03;;;;;;;1.87;0.80;;;;;;;15.95;52.90;101546.75;5007466;28;97062;-55
2022/07/27 02:49:28;;;;;;;1.10;0.70;;;;;;;15.95;52.88;101543.97;5004844;28;97224;-54
2022/07/27 02:51:54;;;;;;;0.70;0.70;;;;;;;15.92;52.91;101547.03;5006746;28;98801;-55
2022/07/27 02:54:20;;;;;;;2.37;0.90;;;;;;;15.85;52.97;101544.75;5006515;28;97006;-55
2022/07/27 02:56:53;;;;;;;1.00;0.70;;;;;;;15.79;53.11;101544.78;5006017;28;97048;-55
2022/07/27 02:59:20;;;;;;;4.20;1.00;;;;;;;15.78;53.19;101543.25;5006099;28;96982;-55
2022/07/27 03:01:46;;;;;;;0.80;0.80;;;;;;;15.77;53.25;101538.97;5006116;28;97476;-55
2022/07/27 03:04:12;;;;;;;2.07;0.60;;;;;;;15.78;53.19;101546.03;5004730;28;97274;-53
2022/07/27 03:06:37;;;;;;;1.43;0.63;;;;;;;15.77;53.23;101548.03;5007204;28;96763;-54
2022/07/27 03:09:03;;;;;;;0.70;0.60;;;;;;;15.80;53.39;101549.06;5006083;28;96875;-54
2022/07/27 03:11:29;;;;;;;1.53;0.70;;;;;;;15.81;53.29;101545.03;5005728;28;97047;-55
2022/07/27 03:13:54;;;;;;;3.97;1.10;;;;;;;15.80;53.42;101546.28;5003441;28;97622;-54
2022/07/27 03:16:20;;;;;;;3.33;0.80;;;;;;;15.80;53.40;101537.19;5007389;28;97076;-56
2022/07/27 03:18:45;;;;;;;0.60;0.60;;;;;;;15.81;53.44;101545.03;5003764;28;97111;-54
2022/07/27 03:21:11;;;;;;;4.53;0.60;;;;;;;15.78;53.55;101548.81;5004610;28;98663;-54
2022/07/27 03:23:37;;;;;;;0.90;0.60;;;;;;;15.80;53.50;101546.28;5000030;28;97081;-54
2022/07/27 03:26:02;;;;;;;0.70;0.67;;;;;;;15.80;53.43;101548.28;5002583;28;97070;-55
2022/07/27 03:28:27;;;;;;;0.60;0.50;;;;;;;15.77;53.47;101550.06;5005900;28;97473;-53
2022/07/27 03:30:53;;;;;;;0.90;0.57;;;;;;;15.73;53.51;101552.34;5006845;28;98135;-54
2022/07/27 03:33:18;;;;;;;0.90;0.50;;;;;;;15.70;53.55;101556.88;5005374;28;97411;-55
2022/07/27 03:35:43;;;;;;;0.80;0.50;;;;;;;15.69;53.77;101549.81;5006616;28;97189;-55
2022/07/27 03:38:09;;;;;;;1.07;0.80;;;;;;;15.69;53.73;101552.59;4999624;28;97058;-55
2022/07/27 03:40:34;;;;;;;1.50;0.53;;;;;;;15.70;53.74;101556.88;5004235;28;102218;-54
2022/07/27 03:43:00;;;;;;;1.33;0.60;;;;;;;15.69;53.73;101549.06;5007032;28;97101;-54
2022/07/27 03:45:26;;;;;;;1.53;0.53;;;;;;;15.70;53.97;101562.41;5006483;28;97260;-54
2022/07/27 03:47:51;;;;;;;1.87;0.63;;;;;;;15.72;53.90;101559.16;4983116;28;97272;-55
2022/07/27 03:50:17;;;;;;;1.20;0.70;;;;;;;15.75;53.88;101569.22;4996916;28;97057;-55
2022/07/27 03:52:42;;;;;;;1.03;0.63;;;;;;;15.77;53.90;101555.59;5003849;28;98382;-54
2022/07/27 03:55:08;;;;;;;2.07;0.60;;;;;;;15.77;54.01;101561.16;5004576;28;96839;-54
2022/07/27 03:57:33;;;;;;;1.10;0.70;;;;;;;15.79;54.02;101575.31;5005924;28;97467;-54
2022/07/27 03:59:59;;;;;;;3.30;0.87;;;;;;;15.81;54.03;101567.22;4976977;28;98647;-54
2022/07/27 04:02:24;;;;;;;2.93;0.80;;;;;;;15.83;54.03;101569.50;4962569;28;97329;-54
2022/07/27 04:04:49;;;;;;;2.23;0.70;;;;;;;15.81;54.14;101561.69;4998259;27;97497;-54
2022/07/27 04:07:15;;;;;;;1.93;0.60;;;;;;;15.82;54.08;101557.63;5000572;28;96808;-54
2022/07/27 04:09:40;;;;;;;1.43;0.60;;;;;;;15.81;54.13;101567.22;5001529;28;98505;-55
2022/07/27 04:12:06;;;;;;;2.87;0.90;;;;;;;15.82;54.20;101563.19;5000025;28;97942;-54
2022/07/27 04:14:31;;;;;;;2.70;0.67;;;;;;;15.81;54.22;101558.91;5001788;27;97304;-54
2022/07/27 04:16:56;;;;;;;0.77;0.77;;;;;;;15.83;54.21;101558.38;4989696;27;97439;-55
2022/07/27 04:19:22;;;;;;;0.70;0.60;;;;;;;15.84;54.20;101557.09;4995176;28;97446;-54
2022/07/27 04:21:47;;;;;;;1.20;0.60;;;;;;;15.86;54.35;101558.13;4998848;28;98390;-54
2022/07/27 04:24:13;;;;;;;3.17;0.60;;;;;;;15.87;54.28;101559.66;5000419;28;96809;-54
2022/07/27 04:26:38;;;;;;;1.30;0.70;;;;;;;15.89;54.33;101557.13;5000109;28;97265;-54
2022/07/27 04:29:04;;;;;;;2.10;0.60;;;;;;;15.91;54.52;101560.13;5002275;28;97356;-55
2022/07/27 04:31:30;;;;;;;0.90;0.60;;;;;;;15.93;54.37;101557.59;5000328;28;98163;-54
2022/07/27 04:33:55;;;;;;;2.70;0.70;;;;;;;15.95;54.40;101566.19;5002592;28;97001;-54
2022/07/27 04:36:21;;;;;;;0.80;0.57;;;;;;;15.96;54.33;101562.16;5002996;28;96996;-55
2022/07/27 04:38:46;;;;;;;0.80;0.67;;;;;;;16.00;54.49;101561.88;5002901;28;96940;-54
2022/07/27 04:41:11;;;;;;;1.30;0.70;;;;;;;16.01;54.49;101563.41;5002091;28;98271;-54
2022/07/27 04:43:37;;;;;;;2.13;1.07;;;;;;;16.03;54.52;101563.66;5001448;28;97350;-55
2022/07/27 04:46:03;;;;;;;0.90;0.70;;;;;;;16.06;54.54;101565.41;5002096;28;97090;-56
2022/07/27 04:48:33;;;;;;;0.70;0.50;;;;;;;16.05;54.44;101564.66;5002138;28;100266;-54
2022/07/27 04:50:59;;;;;;;1.17;0.70;;;;;;;16.09;54.58;101570.72;5001069;28;100533;-55
2022/07/27 04:53:25;;;;;;;0.63;0.60;;;;;;;16.09;54.62;101564.41;5005957;28;97242;-55
2022/07/27 04:55:50;;;;;;;1.90;0.50;;;;;;;16.09;54.62;101567.94;5001478;28;97303;-55
2022/07/27 04:58:16;;;;;;;0.80;0.70;;;;;;;16.12;54.55;101568.94;4999939;28;97443;-55
2022/07/27 05:00:42;;;;;;;1.90;0.70;;;;;;;16.12;54.68;101572.44;4993684;28;99822;-54
2022/07/27 05:03:08;;;;;;;1.47;0.50;;;;;;;16.15;54.62;101571.44;4991089;28;98371;-55
2022/07/27 05:05:34;;;;;;;1.73;0.50;;;;;;;16.19;54.74;101573.94;4994065;28;97007;-54
2022/07/27 05:07:59;;;;;;;0.70;0.47;;;;;;;16.22;54.70;101565.38;4997451;28;97518;-55
2022/07/27 05:10:24;;;;;;;2.30;0.70;;;;;;;16.28;54.78;101568.13;5003133;28;97201;-54
2022/07/27 05:12:50;;;;;;;1.37;0.70;;;;;;;16.34;54.53;101569.63;4999458;28;97342;-55
2022/07/27 05:15:16;;;;;;;1.87;0.70;;;;;;;16.41;54.73;101574.66;5003147;28;96940;-53
2022/07/27 05:17:41;;;;;;;4.33;0.80;;;;;;;16.44;54.71;101570.88;5004161;28;96923;-54
2022/07/27 05:20:07;;;;;;;3.53;0.77;;;;;;;16.50;54.73;101581.97;5001069;28;97806;-54
2022/07/27 05:22:33;;;;;;;1.37;0.60;;;;;;;16.57;54.92;101586.22;5002288;28;96656;-55
2022/07/27 05:24:58;;;;;;;0.60;0.60;;;;;;;16.60;54.92;101596.34;5001753;28;96878;-54
2022/07/27 05:27:24;;;;;;;1.00;0.60;;;;;;;16.62;54.80;101583.41;5003645;28;97021;-55
2022/07/27 05:29:49;;;;;;;0.70;0.50;;;;;;;16.65;54.73;101584.41;4999247;28;97534;-55
2022/07/27 05:32:15;;;;;;;1.00;0.70;;;;;;;16.63;54.81;101586.97;4998289;27;99612;-55
2022/07/27 05:34:42;;;;;;;3.73;0.60;;;;;;;16.64;54.78;101585.72;5004453;28;97087;-54
2022/07/27 05:37:07;;;;;;;2.87;0.77;;;;;;;16.63;54.89;101584.94;4999446;28;100646;-55
2022/07/27 05:39:33;;;;;;;3.30;0.80;;;;;;;16.64;55.06;101591.25;4994667;28;97162;-58
2022/07/27 05:41:58;;;;;;;3.80;1.10;;;;;;;16.65;54.96;101587.97;4991298;28;97153;-55
2022/07/27 05:44:24;;;;;;;2.10;0.50;;;;;;;16.69;55.02;101590.47;4995893;28;97056;-53
2022/07/27 05:46:49;;;;;;;1.73;0.60;;;;;;;16.74;54.98;101589.69;4985689;27;98051;-53
2022/07/27 05:49:15;;;;;;;1.17;0.63;;;;;;;16.79;54.98;101597.25;4994851;28;98570;-53
2022/07/27 05:51:40;;;;;;;1.63;0.73;;;;;;;16.81;54.95;101603.06;5003428;27;96802;-53
2022/07/27 05:54:05;;;;;;;1.57;0.73;;;;;;;16.85;54.98;101609.09;5000566;28;96776;-54
2022/07/27 05:56:31;;;;;;;1.80;0.67;;;;;;;16.88;54.93;101589.38;5002397;28;97256;-55
2022/07/27 05:58:56;;;;;;;1.33;0.73;;;;;;;16.93;54.89;101594.16;5001953;28;97027;-53
2022/07/27 06:01:22;;;;;;;2.10;0.50;;;;;;;17.02;55.03;101593.84;5003914;28;97137;-55
2022/07/27 06:03:47;;;;;;;0.70;0.70;;;;;;;17.11;54.90;101599.09;5002259;27;97302;-54
2022/07/27 06:09:04;;;;;;;2.70;0.60;;;;;;;17.24;54.76;101606.84;4976407;28;97215;-54
2022/07/27 06:11:29;;;;;;;2.30;0.60;;;;;;;17.29;54.59;101613.66;5000245;28;97464;-53
2022/07/27 06:13:54;;;;;;;6.83;1.00;;;;;;;17.33;54.47;101614.91;4998953;28;97360;-53
2022/07/27 06:16:21;;;;;;;2.77;0.90;;;;;;;17.39;54.45;101612.81;5002342;28;97480;-54
2022/07/27 06:18:46;;;;;;;3.13;0.50;;;;;;;17.48;54.38;101615.28;5003374;27;97128;-54
2022/07/27 06:21:12;;;;;;;1.77;0.87;;;;;;;17.53;54.44;101620.09;5005190;28;96755;-54
2022/07/27 06:23:37;;;;;;;2.43;0.80;;;;;;;17.57;54.34;101626.13;5003422;28;96979;-54
2022/07/27 06:26:03;;;;;;;1.40;0.70;;;;;;;17.59;54.35;101623.59;5004962;28;97266;-54
2022/07/27 06:28:29;;;;;;;1.47;0.70;;;;;;;17.64;54.26;101636.72;5004142;28;98511;-58
2022/07/27 06:30:54;;;;;;;0.97;0.70;;;;;;;17.65;54.26;101629.84;5005549;28;96986;-54
2022/07/27 06:33:29;;;;;;;2.17;0.83;;;;;;;17.73;54.12;101625.25;5003765;28;97072;-54
2022/07/27 06:35:56;;;;;;;0.80;0.80;;;;;;;17.82;53.87;101622.13;4996512;28;99549;-55
2022/07/27 06:38:21;;;;;;;1.43;0.73;;;;;;;17.90;53.71;101622.31;4999377;28;96674;-53
2022/07/27 06:40:51;;;;;;;2.63;0.63;;;;;;;17.97;53.59;101625.28;5003722;27;96992;-54
2022/07/27 06:43:26;;;;;;;1.80;0.60;;;;;;;18.04;53.92;101626.00;5003476;27;96870;-54
2022/07/27 06:45:56;;;;;;;1.53;0.90;;;;;;;18.08;53.58;101626.47;5002771;28;98156;-53
2022/07/27 06:48:22;;;;;;;3.40;0.80;;;;;;;18.16;53.41;101630.16;5004057;28;97026;-53
2022/07/27 06:50:49;;;;;;;2.30;1.03;;;;;;;18.23;53.08;101626.81;5003705;28;96842;-55
2022/07/27 06:53:15;;;;;;;1.70;0.60;;;;;;;18.32;53.00;101627.22;5006723;28;96921;-56
2022/07/27 06:55:40;;;;;;;2.67;0.70;;;;;;;18.36;52.81;101635.28;5005958;28;97524;-53
2022/07/27 06:58:06;;;;;;;1.97;0.53;;;;;;;18.38;52.69;101635.50;5002430;28;97537;-54
2022/07/27 07:00:32;;;;;;;2.30;0.80;;;;;;;18.42;52.41;101635.97;5004323;28;97248;-55
2022/07/27 07:03:01;;;;;;;3.30;0.80;;;;;;;18.49;52.40;101633.41;5004477;28;96873;-54
2022/07/27 07:05:27;;;;;;;0.80;0.60;;;;;;;18.61;52.29;101647.94;5001867;28;101706;-54
2022/07/27 07:07:54;;;;;;;1.80;0.80;;;;;;;18.70;51.84;101633.66;5001764;28;97262;-55
2022/07/27 07:10:20;;;;;;;1.37;0.70;;;;;;;18.74;51.93;101634.09;5004334;28;97129;-55
2022/07/27 07:12:45;;;;;;;2.77;0.50;;;;;;;18.80;52.04;101631.25;5000548;28;96782;-56
2022/07/27 07:15:12;;;;;;;1.10;0.50;;;;;;;18.87;51.86;101636.25;5003652;28;96750;-55
2022/07/27 07:17:37;;;;;;;1.73;0.50;;;;;;;18.96;51.55;101633.09;5000595;28;98437;-55
2022/07/27 07:20:04;;;;;;;2.27;0.70;;;;;;;19.06;51.40;101637.75;5003964;28;97713;-55
2022/07/27 07:22:32;;;;;;;0.80;0.60;;;;;;;19.12;51.00;101640.47;5003664;27;96954;-54
2022/07/27 07:24:57;;;;;;;1.37;0.60;;;;;;;19.18;51.00;101644.69;5002522;28;97003;-54
2022/07/27 07:27:24;;;;;;;2.67;0.70;;;;;;;19.27;50.77;101649.91;5003762;28;97022;-54
2022/07/27 07:29:50;;;;;;;2.57;0.70;;;;;;;19.35;50.43;101645.22;5003529;28;97296;-55
2022/07/27 07:32:15;;;;;;;2.00;0.60;;;;;;;19.46;50.07;101646.38;5004297;28;97344;-54
2022/07/27 07:34:41;;;;;;;1.20;0.60;;;;;;;19.48;50.06;101638.97;5004045;28;97249;-55
2022/07/27 07:37:06;;;;;;;3.73;0.90;;;;;;;19.56;50.14;101634.28;4998795;28;97525;-55
2022/07/27 07:39:32;;;;;;;1.10;0.50;;;;;;;19.66;49.83;101634.63;5004428;28;97120;-54
2022/07/27 07:41:57;;;;;;;2.40;0.90;;;;;;;19.78;49.60;101639.50;5001408;28;97165;-55
2022/07/27 07:44:23;;;;;;;1.37;0.50;;;;;;;19.92;49.45;101629.84;5004735;28;97915;-54
2022/07/27 07:46:48;;;;;;;3.73;0.53;;;;;;;20.09;49.03;101630.31;5000899;28;96681;-55
2022/07/27 07:49:14;;;;;;;2.00;0.80;;;;;;;20.21;48.68;101638.53;5003230;28;96813;-56
2022/07/27 07:51:39;;;;;;;1.70;0.60;;;;;;;20.32;48.45;101641.13;5002433;28;96785;-55
2022/07/27 07:54:04;;;;;;;2.73;0.70;;;;;;;20.34;48.31;101646.91;4999441;28;98000;-55
2022/07/27 07:56:30;;;;;;;1.20;0.50;;;;;;;20.37;48.28;101651.44;5001631;28;100220;-55
2022/07/27 07:58:55;;;;;;;1.27;0.60;;;;;;;20.40;47.96;101642.00;5005222;28;96757;-54
2022/07/27 08:01:20;;;;;;;3.43;0.70;;;;;;;20.47;47.83;101641.34;4999424;27;97208;-54
2022/07/27 08:03:46;;;;;;;2.30;0.60;;;;;;;20.45;47.55;101650.25;5004203;28;97015;-54
2022/07/27 08:06:11;;;;;;;0.90;0.67;;;;;;;20.43;47.66;101652.84;4999884;28;97418;-53
2022/07/27 08:08:38;;;;;;;2.10;0.73;;;;;;;20.50;47.47;101651.44;5003663;27;97261;-53
2022/07/27 08:11:04;;;;;;;0.77;0.50;;;;;;;20.65;47.47;101646.06;5000225;28;97145;-54
2022/07/27 08:13:29;;;;;;;3.63;0.87;;;;;;;20.79;47.49;101647.56;5003849;28;96736;-54
2022/07/27 08:15:54;;;;;;;1.40;0.70;;;;;;;20.95;47.39;101651.31;5000761;28;96709;-55
2022/07/27 08:18:20;;;;;;;2.23;0.60;;;;;;;21.05;46.78;101658.00;5001601;27;96725;-53
2022/07/27 08:20:45;;;;;;;2.37;0.73;;;;;;;21.04;46.62;101654.44;5002942;28;97312;-53
2022/07/27 08:23:13;;;;;;;2.10;0.60;;;;;;;21.01;46.67;101660.34;5010370;22;98847;-50
2022/07/27 08:25:39;;;;;;;1.77;0.47;;;;;;;20.97;46.73;101657.13;4923344;28;96726;-50
2022/07/27 08:28:04;;;;;;;3.00;1.03;;;;;;;20.92;46.65;101655.94;4926380;28;97150;-50
2022/07/27 08:30:30;;;;;;;2.17;0.73;;;;;;;20.98;46.73;101656.56;4924460;28;97263;-50
2022/07/27 08:32:59;;;;;;;0.80;0.50;;;;;;;21.10;46.04;101654.31;4927775;28;102203;-50
2022/07/27 08:35:26;;;;;;;2.97;0.70;;;;;;;21.15;46.04;101650.63;4924261;28;98442;-51
2022/07/27 08:37:52;;;;;;;1.77;0.60;;;;;;;21.15;46.00;101659.03;4925909;28;96816;-54
2022/07/27 08:40:18;;;;;;;2.83;0.77;;;;;;;21.15;45.79;101661.84;4925076;28;97193;-50
2022/07/27 08:42:44;;;;;;;0.97;0.50;;;;;;;21.11;45.38;101669.81;4924226;28;97464;-50
2022/07/27 08:45:12;;;;;;;1.20;0.67;;;;;;;21.03;45.35;101666.16;4924761;28;97827;-49
2022/07/27 08:47:39;;;;;;;0.90;0.50;;;;;;;20.99;45.29;101658.06;4922829;28;96712;-50
2022/07/27 08:50:21;;;;;;;3.60;0.50;;;;;;;21.13;45.08;101644.81;4924705;28;96881;-50
2022/07/27 08:52:58;;;;;;;0.90;0.50;;;;;;;21.33;44.87;101652.53;4924894;28;97208;-50
2022/07/27 08:55:24;;;;;;;1.13;0.60;;;;;;;21.57;44.80;101647.38;4922989;28;97381;-50
2022/07/27 08:57:50;;;;;;;1.80;0.60;;;;;;;21.72;44.21;101652.34;4924991;28;96956;-51
2022/07/27 09:00:17;;;;;;;5.80;0.90;;;;;;;21.72;43.83;101649.56;4926128;28;97407;-51
2022/07/27 09:02:49;;;;;;;1.57;0.50;;;;;;;21.58;43.67;101659.31;4997031;27;96970;-52
2022/07/27 09:05:14;;;;;;;0.70;0.50;;;;;;;21.46;43.61;101649.69;4991192;27;96984;-50
2022/07/27 09:07:40;;;;;;;2.60;0.70;;;;;;;21.46;43.65;101667.25;4994288;28;102097;-49
2022/07/27 09:10:07;;;;;;;1.40;0.70;;;;;;;21.58;43.76;101662.09;4984123;27;96819;-51
2022/07/27 09:12:33;;;;;;;0.97;0.57;;;;;;;21.62;43.54;101659.75;4974245;28;97113;-50
2022/07/27 09:15:06;;;;;;;0.60;0.50;;;;;;;21.65;42.30;101650.22;4975218;28;96973;-50
2022/07/27 09:17:32;;;;;;;4.23;0.80;;;;;;;21.65;43.48;101653.78;4984736;27;97929;-50
2022/07/27 09:20:05;;;;;;;2.33;0.53;;;;;;;21.70;42.19;101662.59;4985710;27;97226;-50
2022/07/27 09:22:37;;;;;;;2.63;0.70;;;;;;;21.72;42.52;101662.81;4985531;28;97125;-51
2022/07/27 09:25:03;;;;;;;1.43;0.50;;;;;;;21.85;43.16;101659.97;4990013;27;97011;-50
2022/07/27 09:27:29;;;;;;;2.73;0.77;;;;;;;22.14;42.58;101662.28;4997243;27;101797;-50
2022/07/27 09:30:07;;;;;;;1.47;0.80;;;;;;;22.28;42.04;101649.66;4995693;27;99122;-52
2022/07/27 09:32:33;;;;;;;1.70;0.93;;;;;;;22.37;42.37;101646.34;5000077;27;97450;-52
2022/07/27 09:35:13;;;;;;;1.73;0.60;;;;;;;22.29;41.20;101653.22;5000138;27;97679;-51
2022/07/27 09:37:38;;;;;;;1.83;0.67;;;;;;;22.19;42.30;101652.22;4987276;27;101111;-50
2022/07/27 09:40:16;;;;;;;1.53;0.60;;;;;;;22.21;41.82;101650.34;4986735;27;97316;-52
2022/07/27 09:42:42;;;;;;;1.30;0.50;;;;;;;22.52;42.00;101639.34;4984312;27;97151;-53
2022/07/27 09:45:31;;;;;;;2.87;0.67;;;;;;;22.69;39.53;101643.22;4991432;27;97201;-51
2022/07/27 09:48:11;;;;;;;2.03;0.53;;;;;;;22.68;40.96;101652.16;4986485;27;101313;-51
2022/07/27 09:50:40;;;;;;;2.80;0.73;;;;;;;22.66;41.60;101661.16;4978952;27;97187;-51
2022/07/27 09:53:21;;;;;;;1.33;0.50;;;;;;;22.62;40.69;101657.19;4983099;28;97184;-50
2022/07/27 09:55:57;;;;;;;2.30;0.53;;;;;;;22.57;41.03;101661.63;4984546;27;96906;-50
2022/07/27 09:58:46;;;;;;;4.20;0.93;;;;;;;22.59;41.22;101656.25;4983887;27;97871;-52
2022/07/27 10:01:16;;;;;;;1.10;0.50;;;;;;;22.73;41.48;101646.41;4981084;28;102026;-50
2022/07/27 10:03:42;;;;;;;1.30;0.53;;;;;;;22.76;41.54;101650.91;4983535;27;97070;-50
2022/07/27 10:06:09;;;;;;;0.80;0.50;;;;;;;22.76;41.29;101653.69;4984730;28;97442;-50
2022/07/27 10:08:39;;;;;;;1.70;0.57;;;;;;;22.76;41.03;101658.59;4986066;28;104466;-50
2022/07/27 10:11:05;;;;;;;1.43;0.60;;;;;;;22.78;41.35;101651.09;4981204;27;97370;-50
2022/07/27 10:13:30;;;;;;;0.70;0.50;;;;;;;22.82;41.42;101662.75;4975480;27;97445;-50
2022/07/27 10:15:56;;;;;;;0.80;0.60;;;;;;;22.80;41.28;101654.09;4974793;27;96936;-50
2022/07/27 10:18:35;;;;;;;1.13;0.70;;;;;;;22.90;40.77;101657.91;4973313;27;97037;-51
2022/07/27 10:21:07;;;;;;;1.00;0.67;;;;;;;23.07;40.03;101651.78;4970596;28;97626;-52
2022/07/27 10:23:35;;;;;;;1.87;0.40;;;;;;;23.15;40.67;101661.00;4962868;28;96913;-50
2022/07/27 10:26:26;;;;;;;1.43;0.40;;;;;;;23.09;39.81;101651.97;4961943;28;97392;-50
2022/07/27 10:28:56;;;;;;;1.30;0.60;;;;;;;23.10;40.50;101659.84;4982970;28;101976;-50
2022/07/27 10:31:32;;;;;;;1.07;0.50;;;;;;;23.11;40.01;101654.97;4982354;28;97513;-51
2022/07/27 10:34:00;;;;;;;1.00;0.63;;;;;;;23.00;40.16;101667.28;4972446;28;96884;-50
2022/07/27 10:36:28;;;;;;;1.20;0.60;;;;;;;22.99;39.71;101662.25;4977417;27;97482;-51
2022/07/27 10:38:56;;;;;;;0.60;0.43;;;;;;;23.08;39.98;101662.47;4973978;27;97422;-52
2022/07/27 10:41:29;;;;;;;3.07;0.70;;;;;;;23.27;39.90;101653.72;4973356;28;97231;-49
2022/07/27 10:44:13;;;;;;;1.83;0.60;;;;;;;23.49;38.99;101658.66;4969994;27;96716;-49
2022/07/27 10:47:02;;;;;;;1.00;0.40;;;;;;;23.70;38.41;101639.59;4970795;28;98431;-51
2022/07/27 10:49:33;;;;;;;1.63;0.50;;;;;;;23.92;39.07;101640.91;4969468;27;101873;-50
2022/07/27 10:51:59;;;;;;;1.00;0.50;;;;;;;23.90;38.86;101645.59;4972111;27;97275;-51
2022/07/27 10:54:35;;;;;;;1.17;0.70;;;;;;;23.79;38.80;101644.66;4975582;28;97470;-51
2022/07/27 10:57:02;;;;;;;1.17;0.70;;;;;;;23.67;38.75;101643.53;4981752;28;97125;-51
2022/07/27 10:59:40;;;;;;;0.80;0.60;;;;;;;23.70;38.42;101636.78;4970369;28;104341;-50
2022/07/27 11:02:08;;;;;;;1.10;0.70;;;;;;;23.89;38.40;101635.66;4968349;28;100311;-50
2022/07/27 11:04:43;;;;;;;0.60;0.47;;;;;;;24.10;37.63;101633.44;4971514;27;96827;-52
2022/07/27 11:07:09;;;;;;;0.60;0.43;;;;;;;24.14;38.03;101633.78;4972691;28;97171;-52
2022/07/27 11:09:39;;;;;;;1.80;0.40;;;;;;;24.27;37.62;101636.41;4972628;27;96762;-50
2022/07/27 11:12:06;;;;;;;1.43;0.60;;;;;;;24.22;37.56;101643.72;4973268;27;102351;-51
2022/07/27 11:14:45;;;;;;;1.37;0.50;;;;;;;24.12;37.52;101642.78;4976387;27;97127;-51
2022/07/27 11:17:10;;;;;;;1.67;0.60;;;;;;;23.95;37.96;101642.59;4983089;27;96868;-51
2022/07/27 11:19:36;;;;;;;1.10;0.53;;;;;;;23.86;37.79;101637.53;4979699;27;96930;-51
2022/07/27 11:22:02;;;;;;;1.13;0.67;;;;;;;23.67;38.24;101648.41;4976655;28;96793;-52
2022/07/27 11:24:27;;;;;;;1.10;0.70;;;;;;;23.67;38.18;101645.59;4967343;28;97247;-52
2022/07/27 11:26:53;;;;;;;1.03;0.60;;;;;;;23.69;38.21;101651.41;4961811;28;96925;-55
2022/07/27 11:29:22;;;;;;;1.40;0.83;;;;;;;23.72;38.65;101653.09;4968111;28;97577;-49